Sharon, North Carolina
Current Conditions -  °F | °C
As of 8:15 AM on Sunday 21 Dec 2014 (Local Time) from KSVH Reporting Station
Overcast Overcast  
Wind Chill: 40°   Ceiling: 1700
Heat Index: 40°   Visibility: 7mi
Dew Point: 36°   Wind: 0mph
Humidity: 87%   Direction: NA
Pressure: 30.26"   Gusts: NA
Location:  35.8306°N, 80.9003°W
Report Text: KSVH 211315Z AUTO 00000KT 7SM OVC017 04/02 A3026 RMK AO2 T00420022
Loading
Personal Weather Stations






























Interactive Weather Map New forecast layout! Learn more

10-Day Weather Forecast

Advertisements
Track Severe Weather on mobile